Logs for Dick Palmer, Wentzville, MO, USA [EM48nv]
Paging Controls
Date UTC KHz ID Location S/P ITU Region GSQ LSB USB Sec. Fmt. Power KM Miles
2021-05-31 1031 359 SDR Snyder TX USA na DM92mq 25 1140 709
2021-05-31 1020 344 JL 'Lunns' Joplin MO USA na EM27re 373 232
2021-05-31 1017 338 TT 'Stutt' Stuttgart AR USA na EM44fm 25 490 304
2021-05-31 1016 335 BV 'Almnd' Batesville AR USA na EM45cq 25 366 227
2021-05-31 0044 400 AHQ Wahoo NE USA na EN11qf 554 344
2021-05-31 0018 341 FO 'Barro' Fort Dodge IA USA na EN22um 25 495 308
2021-05-31 0013 332 DN 'Julip' Danville IL USA na EN60fg 324 201
2021-05-31 0010 293 FBY Fairbury NE USA na EN10ke 50 555 345
2021-05-31 0007 277 OT 'Wondd' Worthington MN USA na EN23go 25 648 403
2021-05-30 1037 278 ADG Adrian MI USA na EN71xu 50 665 413
2021-05-30 1036 275 DE 'Elwin' Decatur IL USA na EM59ms 191 119
2021-05-30 1032 407 CM 'Veals' Champaign / Urbana IL USA na EM59vx 259 161
2021-05-30 1031 397 CIR Cairo IL USA na EM57jb 25 251 156
2021-05-30 1030 391 PLX 'Palestine' Robinson IL USA na EM69ea 25 281 175
2021-05-30 1029 390 BR 'Burns' Burlington IL USA na EN40kp 25 196 122
2021-05-30 1028 388 MD 'Cabbi' Carbondale / Murphysboro IL USA na EM57ju 186 115
2021-05-30 1027 382 SP 'Huskk' Springfield IL USA na EM59cs 25 135 84
2021-05-30 1027 385 JD 'Gooey' Belleville IL USA na EM58dl 111 69
2021-05-30 1025 375 LQ 'Licol' Springfield IL USA na EM59ev 155 96
2021-05-30 1024 365 SYZ Shelbyville IL USA na EM59nj 25 181 113
2021-05-30 1022 350 CP 'Acore' Cahokia / St Louis IL USA na EM48xm 25 83 52
2021-05-30 1021 347 AFK Nebraska City NE USA na EN20bo 468 291
2021-05-30 1018 334 LH 'Egrow' Bloomington IL USA na EN50nn 252 157
2021-05-30 1016 326 SU 'Snoop' Saint Louis MO USA na EM48op 25 29 18
2021-05-30 1016 329 AAA 'Abraham' Lincoln IL USA na EN50hd 25 189 118
2021-05-30 1015 305 OI 'Tommi' South Sioux City NE USA na EN12sl 25 616 383
2021-05-30 1013 293 UI Quincy IL USA na EM49iv 25 117 73
2021-04-26 0322 338 TU 'Oillr' Tulsa OK USA na EM26bc 539 335
2021-04-26 0312 341 SB 'Misha' South Bend IN USA na EN61vq 503 312
2021-04-26 0311 335 ZKF Kitchener (Wellington) ON CAN na EN93ul 15 1020 634
2021-04-25 0715 336 BV Champlain QC CAN na FN46iu 25 1817 1129
2021-04-25 0656 345 GF 'Hiser' Grand Forks ND USA na EN17ju 1119 695
2021-04-25 0653 344 ZSB Noranda (Sudbury) ON CAN na EN96pq 100 1197 744
2021-04-25 0646 344 JL 'Lunns' Joplin MO USA na EM27re 373 232
2021-04-25 0639 342 ST 'Hussk' St Cloud MN USA na EN35al 25 775 481
2021-04-25 0633 341 FO 'Barro' Fort Dodge IA USA na EN22um 25 495 308
2021-04-24 1058 338 HR 'Sebas' Harlingen TX USA na EL16eh 25 1534 953
2021-04-24 1046 347 ATA Atlanta TX USA na EM23vc 25 710 441
2021-04-24 1036 344 CGQ 'Powell' Corsicana TX USA na EM12sb 912 567
2021-04-24 1028 341 DNI Denison TX USA na EM13pt 25 769 478
2021-04-24 1023 339 OP 'Yates' Thomaston GA USA na EM72vw 893 555
2021-04-24 1022 340 GN 'Brindl' Lexington KY USA na EM78rc 558 347
2021-04-24 1016 338 TT 'Stutt' Stuttgart AR USA na EM44fm 25 490 304
2021-04-24 1013 338 RYN 'Ryan' Tucson AZ USA na DM42kd 400 1975 1227
2021-04-24 1009 336 MA 'Wexford' Cadillac MI USA na EN74ff 740 460
2021-04-24 1003 335 BK 'CHRLZ' Brookings SD USA na EN14mi 25 789 490
2021-04-24 1002 335 BV 'Almnd' Batesville AR USA na EM45cq 25 366 227
2021-04-24 0956 338 JZ 'Newbn' Lawrence KS USA na EM28kv 25 368 228
2021-04-24 0952 341 OIN Oberlin KS USA na DM99rt 25 837 520
2021-04-24 0951 341 CQN 'Daisy' Chattanooga TN USA na EM75kd 50 659 409
2021-04-24 0950 341 CCJ 'Clark Co' Springfield OH USA na EM89cu 25 618 384
2021-04-24 0945 344 JA 'Dinns' Jacksonville FL USA na EM90cl 400 1250 776
2021-04-24 0941 344 UNU Juneau WI USA na EN53pk 536 333
2021-04-24 0940 344 TKH 'Tallulah' Vicksburg LA USA na EM42lf 741 461
2021-04-24 0935 347 AFK Nebraska City NE USA na EN20bo 468 291
2021-04-24 0934 349 GW 'Teock' Greenwood MS USA na EM43wo 25 592 368
2021-04-24 0933 348 MC 'Surff' Mason City IA USA na EN33ib 25 506 314
2021-04-24 0932 347 PA Prince Albert SK CAN na DO73cf 25 1957 1216
2021-04-24 0930 346 YXL Sioux Lookout ON CAN na EO40bc 1000 1248 776
2021-04-24 0928 338 ZEM Eastmain QC CAN na FO02rf 25 1761 1094
2021-04-24 0928 340 YY Mont Joli QC CAN na FN58un 500 2097 1303
2021-04-24 0927 336 LF La Salle MB CAN na EN19ip 50 1298 807
2021-04-24 0925 335 YLD Chapleau ON CAN na EN87hs 100 1157 719
2021-04-24 0115 338 UMP 'Metropolitan' Indianapolis IN USA na EM69xw 25 431 268
2021-03-27 0807 368 SX Skookum (Cranbrook) BC CAN na DN29cw 500 2312 1436
2021-03-27 0758 368 VIQ Neillsville WI USA na EN44rn 25 631 392
2021-03-27 0753 365 JN 'Balll' Muncie IN USA na EN70ie 500 310
2021-03-27 0752 366 EZM Eastman GA USA na EM82kd 25 1026 638
2021-03-27 0749 365 TV 'Gwenn' Traverse City MI USA na EN74gr 30 788 490
2021-03-27 0738 365 FT 'Mufin' Fort Worth TX USA na EM12hv 25 887 551
2021-03-27 0733 361 HB 'Himun' Burlington NC USA na FM05ex 1044 649
2021-03-27 0730 362 AK Akron OH USA na EN91hb 844 524
2021-03-27 0729 362 MT Manitowac WI USA na EN64de 644 400
2021-03-27 0725 362 CA 'Murry' Columbia SC USA na EM93jx 1022 635
2021-03-27 0724 362 RPX Round Up MT USA na DN56rl 25 1666 1035
2021-03-27 0717 360 SW 'Roadd' Warroad MN USA na EN28ju 25 1160 721
2021-03-27 0715 360 PN Port-Menier / Ile Anticosti QC CAN na FN79tu 500 2414 1500
2021-03-27 0711 359 SDR Snyder TX USA na DM92mq 25 1140 709
2021-03-27 0709 357 IM 'Keans' Asheville NC USA na EM85qm 821 510
2021-03-27 0708 356 GR 'Famis' Green Bay WI USA na EN54vk 655 407
2021-03-27 0706 356 ODX Ord NE USA na EN01mo 25 749 465
2021-03-27 0705 356 SJ 'Woole' San Angelo TX USA na DM91rg 1220 758
2021-03-27 0700 356 ZXE Barnes (Saskatoon) SK CAN na DO62rd 39 1904 1183
2021-03-27 0659 356 AY St Anthony NL CAN na GO11wj 25 3020 1877
2021-03-27 0651 353 VV 'Junne' Greensboro GA USA na EM83lp 912 567
2021-03-27 0648 353 IN 'Raize' International Falls MN USA na EN38il 100 1083 673
2021-03-27 0648 353 PG Portage MB CAN na EN09vu 25 1349 838
2021-03-27 0647 353 GVB 'Bogalusa' George R Carr Memorial Airfield LA USA na EM50bv 894 555
2021-03-27 0641 351 MSQ Culpeper VA USA na FM18bk 25 1129 701
2021-03-27 0636 350 D7 Kincardine ON CAN na EN94ee 25 968 601
2021-03-27 0258 362 SB Sudbury ON CAN na EN96mp 400 1180 733
2021-03-27 0257 362 SUR Fitzgerald GA USA na EM81io 25 1063 660
2021-03-27 0256 359 GYG Grayling MI USA na EN74or 25 821 510
2021-03-27 0238 352 VM 'Meana', Mena Intermountain Municipal AR USA na EM24xm 25 562 349
2021-03-27 0236 365 PAL Palma EQA sa FI07cx 1000 4688 2913
2021-03-27 0229 368 ROQ Ruston LA USA na EM32qo 25 717 445
2021-03-27 0229 369 ZDX Coolidge Saint Johns ATG ca FK97cd 700 3711 2306
2021-03-27 0228 366 YMW Maniwaki QC CAN na FN26ae 500 1463 909
2021-03-27 0226 365 AA 'Kenie' Fargo MN USA na EN17oa 100 1023 635
2021-03-27 0225 363 RNB 'Rainbow' Millville NJ USA na FM29kk 50 1357 843
2021-03-27 0221 359 GGF Grant NE USA na DN90du 949 590
2021-03-27 0217 353 LI 'Lasky' Little Rock AR USA na EM34uq 400 485 301
2021-03-27 0212 350 RG 'Gally' Oklahoma City OK USA na EM15eh 400 719 447
2021-03-27 0212 351 YKQ Waskaganish QC CAN na FO01pl 500 1688 1049
2021-03-26 1711 365 SYZ Shelbyville IL USA na EM59nj 25 181 113
2021-03-26 1706 356 PI 'Tungg' Peoria IL USA na EN50eo 40 218 135
2021-03-26 1703 350 CP 'Acore' Cahokia / St Louis IL USA na EM48xm 25 83 52
2021-02-22 0826 426 UV 'Tunng' Oxford MS USA na EM54ej 25 513 318
2021-02-22 0824 420 TU 'Veron' Tupelo MS USA na EM54oe 25 555 345
2021-02-22 0811 340 YY Mont Joli QC CAN na FN58un 500 2097 1303
2021-02-22 0805 350 NY Enderby BC CAN na DO00mp 500 2550 1584
2021-02-22 0801 206 XBE Bearskin Lake ON CAN na EO43lx 25 1677 1042
2021-02-22 0800 206 QI Yarmouth NS CAN na FN63wt 500 2128 1322
2021-02-22 0758 209 ITR 'Kit Carson' Burlington CO USA na DM89uf 25 986 612
2021-02-22 0757 216 YFA Fort Albany ON CAN na EO92de 200 1638 1018
2021-02-22 0756 212 YGX Gillam MB CAN na EO26pi 1961 1219
2021-02-22 0754 280 QX Gander NL CAN na GN28px 1000 3070 1907
2021-02-22 0750 254 5B Summerside PE CAN na FN86bj 250 2346 1458
2021-02-22 0748 201 YKX Kirkland Lake ON CAN na FN08bf 200 1362 846
2021-02-21 0902 339 OP 'Yates' Thomaston GA USA na EM72vw 893 555
2021-02-21 0816 341 OIN Oberlin KS USA na DM99rt 25 837 520
2021-02-21 0809 341 CCJ 'Clark Co' Springfield OH USA na EM89cu 25 618 384
2021-02-21 0808 341 CQN 'Daisy' Chattanooga TN USA na EM75kd 50 659 409
2021-02-21 0802 326 PKZ 'Pickens' Pensacola FL USA na EM60jk 400 998 620
2021-02-21 0232 382 YPL Pickle Lake ON CAN na EO41vk 500 1395 867
2021-02-20 1024 326 YQK Kenora ON CAN na EN29st 200 1246 774
2021-02-20 1013 224 BH 'Mc Den' Birmingham AL USA na EM63nm 400 697 433
2021-02-20 1012 392 AGZ Wagner SD USA na EN03ub 25 775 482
2021-02-20 0956 276 YEL Elliot Lake ON CAN na EN86qi 250 1068 663
2021-02-20 0946 317 VC La Ronge SK CAN na DO75ic 500 2098 1304
2021-02-20 0941 329 CH 'Ashly' Charleston SC USA na EM92wx 400 1169 726
2021-02-20 0935 346 YXL Sioux Lookout ON CAN na EO40bc 1000 1248 776
2021-02-20 0934 335 YLD Chapleau ON CAN na EN87hs 100 1157 719
2021-02-20 0931 338 RYN 'Ryan' Tucson AZ USA na DM42kd 400 1975 1227
2021-02-20 0930 344 JA 'Dinns' Jacksonville FL USA na EM90cl 400 1250 776
2021-02-20 0924 350 RG 'Gally' Oklahoma City OK USA na EM15eh 400 719 447
2021-02-20 0923 351 MSQ Culpeper VA USA na FM18bk 25 1129 701
2021-02-20 0918 355 YWP Webequie ON CAN na EO62hx 100 1588 987
2021-02-20 0916 362 SB Sudbury ON CAN na EN96mp 400 1180 733
2021-02-20 0914 362 RPX Round Up MT USA na DN56rl 25 1666 1035
2021-02-20 0910 363 RNB 'Rainbow' Millville NJ USA na FM29kk 50 1357 843
2021-02-20 0907 368 VIQ Neillsville WI USA na EN44rn 25 631 392
2021-02-20 0903 376 YAG Fort Frances ON CAN na EN38fq 40 1109 689
2021-02-20 0901 380 GC 'Deryk' Gillette WY USA na DN74fg 25 1356 842
2021-02-20 0858 385 HO 'Hossy' Hot Springs AR USA na EM34jk 50 537 334
2021-02-20 0858 385 CPZ 'Chaparrosa Ranch' La Pryor TX USA na DL98xv 25 1395 867
2021-02-20 0849 391 EFW Jefferson IA USA na EN22ta 25 456 284
2021-02-20 0848 391 OO Oshawa ON CAN na FN03nw 7 1145 712
2021-02-20 0844 397 ZHA Ancaster (Hamilton) ON CAN na EN93xe 14 1025 637
2021-02-20 0842 399 ZHD 'Thunder' Dryden ON CAN na EN39qt 25 1221 759
2021-02-20 0838 401 YPO Peawanuck ON CAN na EO74gx 125 1833 1139
2021-02-20 0837 403 ZTO Woodhill / Brampton (Toronto) ON CAN na FN03dr 40 1075 668
2021-02-20 0837 404 MOG Montague CA USA na CN81sr 25 2681 1666
2021-02-20 0836 404 XCR 'Ripley' Little Falls MN USA na EN26tb 50 847 526
2021-02-20 0833 407 IL 'Airbo' Wilmington OH USA na EM89dl 25 621 386
2021-02-20 0832 407 OOC 'Campi' Natchitoches LA USA na EM31lp 25 830 515
2021-02-20 0831 407 ZHU Hauts-Bois / St Hubert (Montreal) QC CAN na FN35hn 95 1615 1004
2021-02-20 0830 408 JDM 'Wheatfield' Colby KS USA na DM99lm 25 878 546
2021-02-20 0829 408 SN 'St. Catharines' Saint Catharines ON CAN na FN03id 12 1079 670
2021-02-20 0825 414 ATS Artesia NM USA na DM72su 25 1394 866
2021-02-20 0824 414 LK 'Laang' Louisville KY USA na EM78ed 464 288
2021-02-20 0822 415 DJD Canton GA USA na EM74sg 25 769 478
2021-02-20 0821 416 LB 'Panbe' North Platte NE USA na DN91rb 50 858 533
2021-02-20 0820 417 SLP 'First River' Shelby NC USA na EM95eg 25 913 568
2021-02-20 0817 419 RYS 'Grosse Ile' Detroit / Grosse Ile MI USA na EN82kc 25 746 463
2021-02-20 0814 420 CFY 'Evans' Lake City SC USA na FM03cu 25 1138 707
2021-02-20 0813 420 FQ 'Montz' Fairmont MN USA na EN23tp 25 603 375
2021-02-20 0809 516 YWA Petawawa ON CAN na FN15iv 25 1357 843
2021-02-20 0101 332 QT Thunder Bay ON CAN na EN58gi 1000 1058 657
2021-02-20 0055 233 QN Nakina ON CAN na EO60qe 400 1299 807
2021-02-20 0054 223 YYW Armstrong ON CAN na EO50lh 100 1277 794
2021-02-20 0053 218 RL Red Lake ON CAN na EO31cb 1000 1372 852
2021-02-19 1837 338 UMP 'Metropolitan' Indianapolis IN USA na EM69xw 25 431 268
2021-02-19 1830 251 JZY Macomb IL USA na EN40rm 25 183 114
2021-02-19 1826 227 FZ 'Eaves' St. Louis MO USA na EM48rq 37 23
2021-01-25 0639 320 YQF Red Deer AB CAN na DO32bd 50 2302 1430
2021-01-25 0038 332 PH 'Phurn' Port Huron MI USA na EN82qu 821 510
2021-01-25 0032 329 YEK Arviat NU CAN na EP21xc 500 2479 1540
2021-01-25 0017 332 DN 'Julip' Danville IL USA na EN60fg 324 201
2021-01-24 0025 326 FC Fredericton NB CAN na FN65qw 1600 2128 1322
2021-01-23 1125 329 CH 'Ashly' Charleston SC USA na EM92wx 400 1169 726
2021-01-23 0835 332 XH Medicine Hat AB CAN na DO40oa 50 1996 1240
2021-01-23 0228 332 FIS 'Fish Hook' Key West FL USA na EL94cn 400 1808 1123
2021-01-23 0226 331 JV 'Catch' Jeffersonville IN USA na EM78dl 451 280
2021-01-23 0221 329 PMV Plattsmouth NE USA na EN20bw 25 483 300
2021-01-23 0213 326 MA 'Farly' Midland TX USA na DM81ux 400 1287 800
2021-01-23 0029 326 PKZ 'Pickens' Pensacola FL USA na EM60jk 400 998 620
2021-01-23 0015 334 YER Fort Severn ON CAN na EO65ex 195 1914 1189
2021-01-23 0013 332 QT Thunder Bay ON CAN na EN58gi 1000 1058 657
2021-01-23 0005 329 AAA 'Abraham' Lincoln IL USA na EN50hd 25 189 118
2021-01-23 0004 328 YTL Big Trout Lake ON CAN na EO53bt 1000 1660 1031
2021-01-23 0003 326 YQK Kenora ON CAN na EN29st 200 1246 774
2021-01-23 0002 323 OUK Calhoun GA USA na EM74mj 24 727 452
2021-01-22 2134 334 LH 'Egrow' Bloomington IL USA na EN50nn 252 157
2021-01-22 2120 326 SU 'Snoop' Saint Louis MO USA na EM48op 25 29 18
2021-01-18 1009 385 CPZ 'Chaparrosa Ranch' La Pryor TX USA na DL98xv 25 1395 867
2021-01-18 0951 365 SYZ Shelbyville IL USA na EM59nj 25 181 113
2021-01-18 0942 517 FN 'Hillz' Clinton IA USA na EN41ts 322 200
2021-01-18 0933 416 LB 'Panbe' North Platte NE USA na DN91rb 50 858 533
2021-01-18 0925 410 BA 'Clifs' Columbus IN USA na EM79ch 25 441 274
2021-01-18 0920 407 BZ 'Bullo' Statesboro GA USA na EM92ek 25 1100 684
2021-01-18 0918 404 MOG Montague CA USA na CN81sr 25 2681 1666
2021-01-18 0910 396 CRS Corsicana TX USA na EM12ta 25 912 567
2021-01-18 0905 395 OS 'Pober' Oshkosh WI USA na EN53ru 585 363
2021-01-04 1040 214 LU 'Cultus' Abbotsford BC CAN na CN89xa 400 2712 1685
2021-01-04 1038 209 SYS 'Stoystown' Somerset PA USA na FN00nc 25 1037 645
2021-01-04 1038 210 IOB Mount Sterling KY USA na EM88ab 49 609 378
2021-01-04 1036 207 CL Charlo NB CAN na FN68sa 1000 2203 1369
2021-01-04 1026 233 BR Brandon MB CAN na DN99xv 25 1421 883
2021-01-04 1022 524 HRD 'Hardin County' Kountze / Silsbee TX USA na EM20ui 25 999 621
2021-01-04 1016 394 RWO 'Woody Island' Kodiak AK ALS na BO37us 4796 2980
2021-01-04 1012 393 FGP Fort Bragg NC USA na FM05od 40 1150 714
2021-01-04 1009 392 PNA 'Wenz' Pinedale WY USA na DN52ct 25 1645 1022
2021-01-04 1005 391 FIQ 'Fiddlers' Morganton NC USA na EM95dr 25 883 549
2021-01-04 1004 391 EFW Jefferson IA USA na EN22ta 25 456 284
2021-01-04 1002 391 4W Kelsey MB CAN na EO16ra 25 1949 1211
2021-01-04 1000 390 OWC 'Coffee County' Douglas GA USA na EM81mj 25 1100 684
2021-01-04 0959 389 PVC Provincetown MA USA na FN42vb 25 1778 1105
2021-01-04 0951 388 RNW Chocowinity NC USA na FM15km 25 1273 791
2021-01-04 0949 388 HAH 'Natchez-Adams Co' Natchez MS USA na EM41iq 802 498
2021-01-04 0948 388 H7 Manitoulin East (Manitowaning) ON CAN na EN95bu 25 1069 664
2021-01-04 0946 386 SYF St. Francis KS USA na DM99cr 25 943 586
2021-01-04 0942 385 PTP Pointe a Pitre GDL ca FK96eg 3794 2357
2021-01-04 0941 385 LN 'Potts' Lincoln NE USA na EN10or 45 545 338
2021-01-04 0936 385 OCC 'Ocean Cape' Yakutat AK ALS na CO09dn 4090 2541
2021-01-04 0933 383 PI 'Tyhee' Pocatello ID USA na DN32rx 400 1870 1162
2021-01-04 0923 380 UMB 'Culvr' Milledgeville GA USA na EM83kd 25 945 587
2021-01-04 0923 382 MW 'Jonny' Marion IL USA na EM57mu 25 203 126
2021-01-04 0922 380 GC 'Deryk' Gillette WY USA na DN74fg 25 1356 842
2021-01-04 0919 379 RUE Russellville AR USA na EM35kg 25 450 279
2021-01-04 0911 375 LF 'Laffs' Lafayette LA USA na EM40bg 963 598
2021-01-04 0909 375 DS Searcy AR USA na EM45cc 25 429 267
2021-01-04 0908 374 HY 'Nette' Hays KS USA na EM08js 722 448
2021-01-04 0905 374 EX Rutland (Kelowna) BC CAN na DN09hw 2553 1586
2021-01-04 0902 372 UQN 'Onyun' Vidalia GA USA na EM82uf 25 1072 666
2021-01-04 0902 372 YCO Coppermine / Kugluktuk NU CAN na DP27kt 1000 3541 2200
2021-01-04 0902 372 ZPA Glass (Prince Albert) SK CAN na DO73ff 25 1946 1209
2021-01-04 0901 372 MF 'Manns' Mansfield OH USA na EN80ss 748 465
2021-01-04 0857 370 VOF 'Alcovy' Covington GA USA na EM83cp 862 536
2021-01-04 0854 368 VIQ Neillsville WI USA na EN44rn 25 631 392
2021-01-04 0853 368 ROQ Ruston LA USA na EM32qo 25 717 445
2021-01-04 0853 368 TEC 'Tech' Blacksburg VA USA na EM97te 25 938 583
2021-01-04 0851 368 AN 'Alamo' San Antonio TX USA na EL09ro 400 1249 776
2021-01-04 0848 366 EZM Eastman GA USA na EM82kd 25 1026 638
2021-01-04 0844 365 JA 'Allen' Jackson MS USA na EM42wj 726 451
2021-01-04 0844 365 TV 'Gwenn' Traverse City MI USA na EN74gr 30 788 490
2021-01-04 0841 365 TOI 'Blood' Troy AL USA na EM61wt 897 557
2021-01-04 0838 362 YZS Coral Harbour NU CAN na EP84id 500 2851 1771
2021-01-04 0837 362 SUR Fitzgerald GA USA na EM81io 25 1063 660
2021-01-04 0836 362 MT Manitowac WI USA na EN64de 644 400
2020-12-31 1036 423 SIF 'Slammer' Reidsville NC USA na FM06cj 25 1014 630
2020-12-31 1024 410 JU 'Ashee' West Jefferson NC USA na EM96ik 25 886 551
2020-12-31 1009 405 2K Camrose AB CAN na DO33oa 2293 1424
2020-12-31 1006 402 M3 Kindersley SK CAN na DO51jm 1997 1241
2020-12-31 1003 402 CV Carlz Carlsbad NM USA na DM72tg 1423 884
2020-12-31 0955 400 OHY 'Coney' Cordele GA USA na EM81bx 25 996 619
2020-12-31 0952 397 ZSS Yellowhead (Saskatoon) SK CAN na DO62pf 25 1919 1192
2020-12-31 0933 391 4W Kelsey MB CAN na EO16ra 25 1949 1211
2020-12-31 0924 388 JW 'Pigeon' Jumping Pound Creek AB CAN na DO21qb 15 2289 1422
2020-12-31 0912 386 SYF St. Francis KS USA na DM99cr 25 943 586
2020-12-31 0906 385 PTP Pointe a Pitre GDL ca FK96eg 3794 2357
2020-12-31 0902 385 DXB De Ridder LA USA na EM30hs 931 579
2020-12-31 0851 380 UMB 'Culvr' Milledgeville GA USA na EM83kd 25 945 587
2020-12-31 0850 383 PI 'Tyhee' Pocatello ID USA na DN32rx 400 1870 1162
2020-12-31 0843 375 GL Gaylord MI USA na EN75oa 846 526
2020-12-31 0830 370 VOF 'Alcovy' Covington GA USA na EM83cp 862 536
2020-12-31 0824 366 EZM Eastman GA USA na EM82kd 25 1026 638
2020-12-31 0820 365 JA 'Allen' Jackson MS USA na EM42wj 726 451
2020-12-30 1156 362 CA 'Murry' Columbia SC USA na EM93jx 1022 635
2020-12-30 1155 361 HB 'Himun' Burlington NC USA na FM05ex 1044 649
2020-12-30 1151 360 SW 'Roadd' Warroad MN USA na EN28ju 25 1160 721
2020-12-30 1144 357 IM 'Keans' Asheville NC USA na EM85qm 821 510
2020-12-30 1139 356 ZXE Barnes (Saskatoon) SK CAN na DO62rd 39 1904 1183
2020-12-30 1138 356 ZF Yellowknife NT CAN na DP22sj 1000 3058 1900
2020-12-30 1136 355 CS 'Fenix' Columbus GA USA na EM72lk 890 553
2020-12-30 1134 353 VV 'Junne' Greensboro GA USA na EM83lp 912 567
2020-12-30 1130 353 LLD Lanai HI HWA oc BL10ms 2000 6540 4063
2020-12-30 1127 353 GVB 'Bogalusa' George R Carr Memorial Airfield LA USA na EM50bv 894 555
2020-12-30 1126 352 BVG 'Boll Weevil' Enterprise AL USA na EM71ai 950 590
2020-12-30 1122 350 LF 'Flufy' Lufkin TX USA na EM21of 924 574
2020-12-30 1116 347 GC 'Pieve' Garden City KS USA na DM97pt 25 865 538
2020-12-30 1105 345 PUF 'Puff' Estherville IA USA na EN23pi 590 367
2020-12-30 1102 345 GF 'Hiser' Grand Forks ND USA na EN17ju 1119 695
2020-12-30 1050 339 OP 'Yates' Thomaston GA USA na EM72vw 893 555
2020-12-30 1050 340 GN 'Brindl' Lexington KY USA na EM78rc 558 347
2020-12-30 1048 338 TU 'Oillr' Tulsa OK USA na EM26bc 539 335
2020-12-30 1046 338 CYR 'Caidy' Cairo GA USA na EM70wv 25 1081 672
2020-12-30 1040 335 AWS 'Lawson' Columbus GA USA na EM72lh 902 560
2020-12-30 1038 332 XH Medicine Hat AB CAN na DO40oa 50 1996 1240
2020-12-29 1156 323 KR Squaw Schefferville QC CAN na FO64ot 250 2522 1567
2020-12-29 1140 284 RQY 'Randolph Co' Elkins WV USA na FM08bv 50 951 591
2020-12-29 1136 281 CA Cartwright NL CAN na GO13lr 1000 3034 1885
2020-12-29 1129 275 R1 Thetford Mines QC CAN na FN46ib 25 1786 1110
2020-12-29 1118 266 YZX Greenwood NS CAN na FN74kw 400 2223 1381
2020-12-29 1103 250 UGS 'University' Athens / Albany OH USA na EM89wg 25 756 470
2020-12-29 1102 248 PQF Mesquite TX USA na EM12rt 25 847 526
2020-12-29 1056 242 XC Cranbrook BC CAN na DN29cq 400 2301 1430
2020-12-29 1031 201 IP Mobile AZ USA na DM33tc 25 2032 1263
2020-12-28 1139 326 SU 'Snoop' Saint Louis MO USA na EM48op 25 29 18
2020-12-28 1133 332 HK 'Tawba' Hickory NC USA na EM95is 25 915 569
2020-12-28 1128 353 LI 'Lasky' Little Rock AR USA na EM34uq 400 485 301
2020-12-28 1125 350 RG 'Gally' Oklahoma City OK USA na EM15eh 400 719 447
2020-12-28 1120 242 EL 'Valtr' El Paso TX USA na DM61uu 400 1599 993
2020-12-28 1118 338 RYN 'Ryan' Tucson AZ USA na DM42kd 400 1975 1227
2020-12-28 1107 404 MOG Montague CA USA na CN81sr 25 2681 1666
2020-12-28 1106 209 ITR 'Kit Carson' Burlington CO USA na DM89uf 25 986 612
2020-12-26 0858 347 AFK Nebraska City NE USA na EN20bo 468 291
2020-12-26 0143 269 BEX Bloomfield IA USA na EN30sr 25 245 152
2020-12-25 2305 326 SU 'Snoop' Saint Louis MO USA na EM48op 25 29 18
2020-12-15 0903 330 MF 'Missi' Mc Allen TX USA na EL06ug 1565 972
2020-12-15 0859 329 CH 'Ashly' Charleston SC USA na EM92wx 400 1169 726
2020-12-15 0853 323 TAB Crown Point TRD ca FK91nd 4279 2659
2020-12-15 0849 284 BT 'Rundi' Baton Rouge LA USA na EM40jn 927 576
2020-12-15 0845 281 CX 'Alibi' Conroe TX USA na EM20gk 25 1029 639
2020-12-15 0839 272 RH 'Arsha' Rhinelander WI USA na EN55ep 757 471
2020-12-15 0837 272 LD 'Lubbi' Lubbock TX USA na DM93dp 25 1132 703
2020-12-15 0834 271 HXO Huntsboro NC USA na FM06qh 25 1116 693
2020-12-15 0832 269 LOR 'Lowe' Fort Rucker (Ozark) AL USA na EM71di 961 597
2020-12-15 0828 266 PYX Perryton TX USA na DM96pj 25 909 565
2020-12-15 0826 264 JUY 'Judd' Andelusia AL USA na EM61th 25 937 582
2020-12-15 0817 260 ST 'Tario' Saint Joseph MO USA na EM29nq 25 355 221
2020-12-15 0814 260 CL 'Rowdy' College Station TX USA na EM10tl 1062 660
2020-12-15 0810 257 MB 'Olste' Saginaw MI USA na EN73vl 755 469
2020-12-15 0802 254 MB Manistee MI USA na EN64wg 716 445
2020-12-15 0801 253 OC 'Nados' Nacogdoches TX USA na EM21pl 25 895 556
2020-12-15 0759 252 SMS Sumter SC USA na EM93tx 25 1086 674
2020-12-15 0748 245 MG 'Marra' Montgomery AL USA na EM62rh 830 516
2020-12-15 0746 245 LUA 'Caverns' Luray VA USA na FM08sq 25 1075 668
2020-12-15 0745 245 UDG Darlington SC USA na FM04bk 25 1098 682
2020-12-15 0742 245 GTP 'Patten' Thomasville GA USA na EM80cw 1094 680
2020-12-15 0741 242 LKG 'Lindbergh' Americus GA USA na EM72we 25 963 598
2020-12-15 0739 239 5Q Fontanges QC CAN na FO44jn 2282 1418
2020-12-15 0734 236 ZHT 'Forks' Winnipeg MB CAN na EN19ku 50 1314 817
2020-12-15 0730 234 TX 'Tecco' Texarkana AR USA na EM33am 25 658 409
2020-12-15 0718 230 AQE 'Alwood' Greenville NC USA na FM15hq 1245 773
2020-12-15 0718 230 BNZ Abbeville LA USA na EL39wx 25 998 620
2020-12-15 0711 221 HYE 'Hanchey' Fort Rucker (Ozark) AL USA na EM71ei 964 599
2020-12-15 0707 221 BO 'Booie' Bristol (Johnston-Kingsport) TN USA na EM86sj 791 491
2020-12-15 0702 219 ZRS 'Ajax' Regina SK CAN na DO70pl 1684 1046
2020-12-15 0700 219 AY 'Wiket' Waycross GA USA na EM81th 1143 710
2020-12-15 0658 206 AP 'Felps' Alpena MI USA na EN84fx 908 564
2020-12-15 0656 205 GM 'Wilze' Wilmington NC USA na FM14ci 1270 789
2020-12-15 0644 215 CSZ 'Crossroads' Athens TX USA na EM22ab 25 888 552
2020-12-15 0643 214 YIO Pond Inlet NU CAN na FQ12aq 25 3823 2375
2020-12-15 0642 214 K8 Nemiscau QC CAN na FO11wq 2000 1824 1133
2020-12-15 0639 212 OZ 'Ruckr' Fort Rucker (Ozark) AL USA na EM71cf 969 602
2020-12-15 0638 212 HP 'Anger' Hammond LA USA na EM40so 923 573
2020-12-15 0637 210 IOB Mount Sterling KY USA na EM88ab 49 609 378
2020-12-15 0637 211 AN 'Bogga' Anniston AL USA na EM73am 25 742 461
2020-12-15 0636 209 SYS 'Stoystown' Somerset PA USA na FN00nc 25 1037 645
2020-12-15 0631 248 MOB 'Wisle' Mobile AL USA na EM50us 400 933 580
2020-12-15 0129 391 FIQ 'Fiddlers' Morganton NC USA na EM95dr 25 883 549
2020-12-15 0127 391 EFW Jefferson IA USA na EN22ta 25 456 284
2020-12-15 0125 390 OWC 'Coffee County' Douglas GA USA na EM81mj 25 1100 684
2020-12-15 0123 388 RNW Chocowinity NC USA na FM15km 25 1273 791
2020-12-15 0115 385 EMR 'Emory' Augusta GA USA na EM93al 400 1001 622
2020-12-15 0108 381 MNI Manning SC USA na EM93vo 25 1122 697
2020-12-15 0106 380 GR 'Sancy' Grand Island NE USA na EN00uu 669 416
2020-12-15 0106 380 OEL Oakley KS USA na DM99oc 25 857 532
2020-12-15 0105 380 GC 'Deryk' Gillette WY USA na DN74fg 25 1356 842
2020-12-15 0104 379 RUE Russellville AR USA na EM35kg 25 450 279
2020-12-15 0102 376 BHC Baxley GA USA na EM81tr 1108 688
2020-12-15 0057 372 UQN 'Onyun' Vidalia GA USA na EM82uf 25 1072 666
2020-12-15 0057 374 HY 'Nette' Hays KS USA na EM08js 722 448
2020-12-15 0051 368 ROQ Ruston LA USA na EM32qo 25 717 445
2020-12-15 0051 368 VIQ Neillsville WI USA na EN44rn 25 631 392
2020-12-15 0050 368 TEC 'Tech' Blacksburg VA USA na EM97te 25 938 583
2020-12-15 0027 332 SG 'Depre' Green Bay WI USA na EN54wj 25 653 405
2020-12-14 1208 408 MW 'Pelly' Moses Lake WA USA na DN07ic 2467 1533
2020-12-14 1201 402 L4 Nipawin SK CAN na DO73xi 200 1894 1177
2020-12-14 1141 362 YZS Coral Harbour NU CAN na EP84id 500 2851 1771
2020-12-14 1133 341 YCS Chesterfield Inlet NU CAN na EP43pi 25 2719 1689
2020-12-14 1124 311 9Y Pincher Creek AB CAN na DN39am 50 2173 1350
2020-12-14 1124 312 UNT Naramata (Penticton) BC CAN na DN09eo 2559 1590
2020-12-14 1123 308 ZZD Calmar (Edmonton Intl Apt) AB CAN na DO33eg 2354 1463
2020-12-14 1121 293 MB 'Mill Bay' Victoria BC CAN na CN88fq 25 2812 1747
2020-12-14 1055 245 CB Cambridge Bay NU CAN na DP79lc 1000 3464 2152
2020-12-14 1046 221 YAS Kangirsuk QC CAN na FP40xa 500 2763 1717
2020-12-14 1028 205 YRQ Trois Rivieres QC CAN na FN36qi 25 1702 1057
2020-12-13 0726 351 MSQ Culpeper VA USA na FM18bk 25 1129 701
2020-12-13 0707 338 HR 'Sebas' Harlingen TX USA na EL16eh 25 1534 953
2020-12-13 0650 315 AT 'Bruny' Dayton OH USA na EM79tu 569 353
2020-12-13 0649 309 GPI Guapi CLM sa FJ12bn 500 4249 2640
2020-12-13 0648 305 RO 'Topan' Roswell NM USA na DM73si 400 1365 848
2020-12-13 0643 293 TOR Torrington WY USA na DN72wb 25 1173 729
2020-12-13 0634 280 GYZ 'Camp Guernsey' Guernsey WY USA na DN72pf 50 1224 761
2020-12-13 0632 278 GPQ Carrollton GA USA na EM73kn 25 785 488
2020-12-13 0631 278 EOE 'Enoree' Newberry SC USA na EM94eh 25 969 602
2020-12-13 0630 278 CEP 'Capitan' Ruidoso NM USA na DM73hl 25 1431 889
2020-12-13 0629 278 AUR 'Sulfy' Sulphur LA USA na EM30ge 25 996 619
2020-12-13 0626 275 HIN 'Whitney' Chadron NE USA na DN82kt 25 1117 694
2020-12-13 0625 275 GEY Greybull WY USA na DN54xm 50 1552 964
2020-12-13 0624 275 RU 'Rovdy' Salisbury NC USA na EM95sr 985 612
2020-12-13 0157 269 PK 'Spida' Park Rapids MN USA na EN26mu 25 945 587
2020-12-13 0154 263 QY Sydney NS CAN na GN06af 500 2640 1641
2020-12-13 0149 254 LLW 'Woodville' Elizabeth City NC USA na FM16ug 50 1316 818
2020-12-13 0142 237 EZF 'Shannon' Fredericksburg VA USA na FM18gg 25 1167 725
2020-12-06 0319 218 YUY Rouyn QC CAN na FN08me 500 1407 874
2020-12-05 0730 344 SL 'Flory' Salina KS USA na EM18eq 585 364
2020-11-30 0652 326 FC Fredericton NB CAN na FN65qw 1600 2128 1322
2020-11-30 0611 263 LQL 'Lakeland' Willoughby OH USA na EN91hq 25 863 536
2020-11-30 0557 245 MG 'Marra' Montgomery AL USA na EM62rh 830 516
2020-11-30 0555 239 TN 'Tribe' Menominee WI USA na EN65db 734 456
2020-11-30 0543 221 HS 'Hanco' Bay Saint Louis MS USA na EM50gk 25 949 590
2020-11-30 0540 212 HP 'Anger' Hammond LA USA na EM40so 923 573
2020-11-29 1039 402 CV Carlz Carlsbad NM USA na DM72tg 1423 884
2020-11-29 0336 218 PR Prince Rupert BC CAN na CO44sg 500 3411 2120
2020-11-29 0120 418 CW 'Mossy' Lake Charles LA USA na EM30jh 25 978 607
2020-11-29 0112 356 AY St Anthony NL CAN na GO11wj 25 3020 1877
2020-11-28 0722 291 9Q Amos QC CAN na FN08vn 25 1476 917
2020-11-28 0653 264 JUY 'Judd' Andelusia AL USA na EM61th 25 937 582
2020-11-28 0617 224 QM Moncton NB CAN na FN76rc 400 2290 1423
2020-11-28 0601 215 ZAB 'Leduc' Edmonton (Intl Apt) AB CAN na DO33gf 25 2342 1455
2020-11-28 0551 201 IP Mobile AZ USA na DM33tc 25 2032 1263
2020-11-28 0440 418 TLC Tulcan (Carchi) EQA sa FJ10dt 100 4441 2759
2020-11-28 0158 323 TAB Crown Point TRD ca FK91nd 4279 2659
2020-11-27 1133 329 CH 'Ashly' Charleston SC USA na EM92wx 400 1169 726
2020-11-27 1054 368 AN 'Alamo' San Antonio TX USA na EL09ro 400 1249 776
2020-11-27 1048 351 AE 'Dudle' Albuquerque NM USA na DM65pf 1460 907
2020-11-26 0850 353 LLD Lanai HI HWA oc BL10ms 2000 6540 4063
2020-11-26 0144 377 YRR Greely (Ottawa) ON CAN na FN25fg 25 1447 899
2020-11-26 0124 404 HU 'Saltt' Hutchinson KS USA na EM18ac 25 622 387
2020-11-25 1222 347 GC 'Pieve' Garden City KS USA na DM97pt 25 865 538
2020-11-25 1138 221 QU Grande Prairie AB CAN na DO05od 50 2749 1708
2020-11-22 0259 245 LUA 'Caverns' Luray VA USA na FM08sq 25 1075 668
2020-11-21 1103 242 ZT Port Hardy BC CAN na CO60gq 500 3129 1944
2020-11-21 1056 420 PK Olathe KS USA na EM28ps 25 332 206
2020-11-21 1049 242 LE 'Blayd' Lexington KY USA na EM77qx 554 344
2020-11-21 1046 254 LLW 'Woodville' Elizabeth City NC USA na FM16ug 50 1316 818
2020-11-21 1010 254 SM Fort Smith AB CAN na DO49bx 400 2766 1719
2020-11-21 1006 248 MOB 'Wisle' Mobile AL USA na EM50us 400 933 580
2020-11-21 1003 245 HU 'Yinno' Terre Haute IN USA na EM69hj 307 191
2020-11-21 0957 254 MB Manistee MI USA na EN64wg 716 445
2020-11-21 0956 257 DT 'Pinck' Denton TX USA na EM13jg 25 845 525
2020-11-21 0955 257 HCY Cowley WY USA na DN54sv 50 1596 992
2020-11-21 0955 257 JYR York NE USA na EN10ev 25 617 383
2020-11-21 0951 257 MB 'Olste' Saginaw MI USA na EN73vl 755 469
2020-11-21 0948 255 SW 'Blaki' Stillwater OK USA na EM16kf 50 625 389
2020-11-21 0937 253 GB 'Garno' Marshall MN USA na EN24bm 25 750 466
2020-11-21 0937 253 OC 'Nados' Nacogdoches TX USA na EM21pl 25 895 556
2020-11-21 0935 253 DD 'Cobbs' Columbus OH USA na EM89lr 49 680 422
2020-11-21 0934 252 SMS Sumter SC USA na EM93tx 25 1086 674
2020-11-21 0930 251 BR 'Larew' Brainerd MN USA na EN26xk 25 877 545
2020-11-21 0924 245 CB Cambridge Bay NU CAN na DP79lc 1000 3464 2152
2020-11-21 0918 245 PWF 'Sportys' Batavia OH USA na EM79vb 25 576 358
2020-11-21 0918 245 UDG Darlington SC USA na FM04bk 25 1098 682
2020-11-21 0916 245 GTP 'Patten' Thomasville GA USA na EM80cw 1094 680
2020-11-21 0910 242 LKG 'Lindbergh' Americus GA USA na EM72we 25 963 598
2020-11-21 0906 248 KZ 'Buttonville' Stouffville (Toronto) ON CAN na FN03iw 25 1115 693
2020-11-21 0904 248 PQF Mesquite TX USA na EM12rt 25 847 526
2020-11-21 0902 248 CG 'Dutch' Cape Girardeau MO USA na EM57dg 207 129
2020-11-21 0859 257 TZ 'Gibraltar Point' Toronto Island ON CAN na FN03ho 25 1093 679
2020-11-21 0855 256 YXN Whale Cove NU CAN na EP32qf 25 2597 1613
2020-11-21 0852 254 ZYC Calgary AB CAN na DO21xe 25 2260 1404
2020-11-21 0851 254 5B Summerside PE CAN na FN86bj 250 2346 1458
2020-11-21 0849 251 YCD Nanaimo BC CAN na CN89bd 500 2845 1768
2020-11-21 0848 250 YMH Mary's Harbour NL CAN na GO22ch 1000 3068 1906
2020-11-21 0846 248 QL Lethbridge AB CAN na DN39no 2106 1308
2020-11-21 0845 248 UL Montreal QC CAN na FN35bl 1000 1576 979
2020-11-21 0833 242 XC Cranbrook BC CAN na DN29cq 400 2301 1430
2020-11-21 0830 257 LW Kelowna BC CAN na DO00hb 50 2557 1589
2020-11-21 0830 257 XE Saskatoon SK CAN na DO62oe 25 1920 1193
2020-11-21 0821 423 SIF 'Slammer' Reidsville NC USA na FM06cj 25 1014 630
2020-11-21 0819 426 UV 'Tunng' Oxford MS USA na EM54ej 25 513 318
2020-11-21 0251 244 TH Thompson MB CAN na EO15bt 1000 1951 1212
2020-11-21 0243 248 WG Winnipeg MB CAN na EN19hv 250 1326 824
2020-11-21 0242 250 FO Flin Flon MB CAN na DO94dq 1600 1934 1202
2020-11-21 0238 251 AM 'Pande' Amarillo TX USA na DM95cd 400 1054 655
2020-11-21 0226 257 FWC 'Wayne County' Fairfield IL USA na EM58tj 25 224 139
2020-11-21 0220 420 CFY 'Evans' Lake City SC USA na FM03cu 25 1138 707
2020-11-21 0215 420 TU 'Veron' Tupelo MS USA na EM54oe 25 555 345
2020-11-21 0213 423 PCW Port Clinton OH USA na EN81nm 25 739 459
2020-11-21 0211 426 IZS Montezuma GA USA na EM72xi 25 953 592
2020-11-21 0009 420 FQ 'Montz' Fairmont MN USA na EN23tp 25 603 375
2020-11-21 0001 245 FS 'Rokky' Sioux Falls SD USA na EN13ol 100 710 441
2020-11-20 1822 251 JZY Macomb IL USA na EN40rm 25 183 114
2020-11-20 1813 240 CJ 'Calde' Springfield IL USA na EM59et 148 92
2020-11-19 0942 389 PVC Provincetown MA USA na FN42vb 25 1778 1105
2020-11-19 0939 392 ML 'Sabar' Monroe LA USA na EM32wk 727 452
2020-11-19 0925 397 ZST 'Alpine' Saint John NB CAN na FN75af 50 2163 1344
2020-11-19 0900 414 GL 'Shugr' Goodland KS USA na DM99eh 25 928 577
2020-11-19 0855 416 LB 'Panbe' North Platte NE USA na DN91rb 50 858 533
2020-11-18 1219 245 CB Cambridge Bay NU CAN na DP79lc 1000 3464 2152
2020-11-18 1214 372 YCO Coppermine / Kugluktuk NU CAN na DP27kt 1000 3541 2200
2020-11-18 1205 397 ZSS Yellowhead (Saskatoon) SK CAN na DO62pf 25 1919 1192
2020-11-18 1201 391 4W Kelsey MB CAN na EO16ra 25 1949 1211
2020-11-18 1201 408 Z7 Claresholm AB CAN na DO30ea 50 2174 1351
2020-11-18 1200 389 YWB Kelowna BC CAN na DN09et 2565 1594
2020-11-18 1156 382 YE Fort Nelson BC CAN na CO88pt 100 3159 1963
2020-11-18 1145 372 ZPA Glass (Prince Albert) SK CAN na DO73ff 25 1946 1209
2020-11-18 1143 365 MA Mayo YT CAN na CP23bp 500 4025 2501
2020-11-18 1135 352 BVG 'Boll Weevil' Enterprise AL USA na EM71ai 950 590
2020-11-18 1132 350 D7 Kincardine ON CAN na EN94ee 25 968 601
2020-11-18 1130 347 PA Prince Albert SK CAN na DO73cf 25 1957 1216
2020-11-18 1118 339 OP 'Yates' Thomaston GA USA na EM72vw 893 555
2020-11-18 1104 329 X2 Athabasca AB CAN na DO34jr 2426 1507
2020-11-18 1100 329 SMY 'Soyya' Marianna FL USA na EM70ju 1032 641
2020-11-18 1051 323 KR Squaw Schefferville QC CAN na FO64ot 250 2522 1567
2020-11-18 1042 315 UBR Cayo Las Brujas CUB ca FL02ko 2126 1321
2020-11-18 1040 312 UNT Naramata (Penticton) BC CAN na DN09eo 2559 1590
2020-11-18 1033 292 ZET Devon (Edmonton Intl Apt) AB CAN na DO33di 25 2364 1469
2020-11-18 1030 287 YSF Stony Rapids SK CAN na DO79bg 2501 1554
2020-11-18 1022 272 XS Prince George BC CAN na CO83qt 25 2909 1807
2020-11-18 1020 272 LD 'Lubbi' Lubbock TX USA na DM93dp 25 1132 703
2020-11-18 1011 256 YXN Whale Cove NU CAN na EP32qf 25 2597 1613
2020-11-18 1008 254 SM Fort Smith AB CAN na DO49bx 400 2766 1719
2020-11-18 1008 254 ZYC Calgary AB CAN na DO21xe 25 2260 1404
2020-11-18 0949 207 YNE Norway House MB CAN na EO13bx 1000 1758 1093
2020-11-16 1138 275 DE 'Elwin' Decatur IL USA na EM59ms 191 119
2020-11-16 1127 269 PK 'Spida' Park Rapids MN USA na EN26mu 25 945 587
2020-11-16 1122 263 ZQT 'Superior' Thunder Bay ON CAN na EN58jj 50 1064 661
2020-11-16 1112 248 KZ 'Buttonville' Stouffville (Toronto) ON CAN na FN03iw 25 1115 693
2020-11-16 1108 242 ZT Port Hardy BC CAN na CO60gq 500 3129 1944
2020-11-16 1054 227 SQ 'Pnthr' Connersville IN USA na EM79ks 25 504 313
2020-11-16 1039 215 CSZ 'Crossroads' Athens TX USA na EM22ab 25 888 552
2020-11-16 1036 214 LU 'Cultus' Abbotsford BC CAN na CN89xa 400 2712 1685
2020-11-16 1022 200 YDL Dease Lake BC CAN na CO58ak 3519 2187
2020-11-16 1016 260 MTH Marathon FL USA na EL94kr 100 1822 1132
2020-11-16 0202 400 AI 'Addmo' Ardmore OK USA na EM14mf 25 751 466
2020-11-16 0158 284 RQY 'Randolph Co' Elkins WV USA na FM08bv 50 951 591
2020-11-16 0153 396 UV 'Bales' Martinsville VA USA na FM06ao 25 992 616
2020-11-16 0150 396 CRS Corsicana TX USA na EM12ta 25 912 567
2020-11-16 0140 388 PK 'Versi' parkersburg WV USA na EM99gg 813 505
2020-11-16 0138 388 H7 Manitoulin East (Manitowaning) ON CAN na EN95bu 25 1069 664
2020-11-16 0136 385 LN 'Potts' Lincoln NE USA na EN10or 45 545 338
2020-11-16 0120 375 OGM Ontonagon MI USA na EN56hu 25 893 555
2020-11-16 0112 368 ZYZ Toronto (The Queensway) ON CAN na FN03fo 25 1081 672
2020-11-16 0111 368 TEC 'Tech' Blacksburg VA USA na EM97te 25 938 583
2020-11-16 0105 365 JA 'Allen' Jackson MS USA na EM42wj 726 451
2020-11-16 0104 365 JN 'Balll' Muncie IN USA na EN70ie 500 310
2020-11-16 0100 365 TV 'Gwenn' Traverse City MI USA na EN74gr 30 788 490
2020-11-16 0030 346 LW 'Bushi' Lewisburg WV USA na EM97ss 916 569
2020-11-13 0945 414 LK 'Laang' Louisville KY USA na EM78ed 464 288
2020-11-13 0942 412 CTZ Clinton NC USA na FM04tx 25 1192 740
2020-11-13 0940 408 SN 'St. Catharines' Saint Catharines ON CAN na FN03id 12 1079 670
2020-11-13 0939 407 PLT 'Platte Center' Columbus NE USA na EN11hl 50 622 387
2020-11-13 0935 404 MOG Montague CA USA na CN81sr 25 2681 1666
2020-11-06 0210 407 HRU Herington KS USA na EM18oq 25 513 319
2020-11-06 0102 375 BM Balmoral MB CAN na EO10id 25 1349 838
2020-11-06 0058 372 MF 'Manns' Mansfield OH USA na EN80ss 748 465
2020-11-06 0053 370 VOF 'Alcovy' Covington GA USA na EM83cp 862 536
2020-11-06 0049 368 VX Dafoe SK CAN na DO71ru 80 1787 1110
2020-11-06 0048 368 SX Skookum (Cranbrook) BC CAN na DN29cw 500 2312 1436
2020-11-06 0025 362 YZS Coral Harbour NU CAN na EP84id 500 2851 1771
2020-11-06 0024 362 TC 'Tuske' Tuscaloosa AL USA na EM63dd 700 435
2020-11-06 0021 362 CD 'Dawes' Chadron NE USA na DN82js 1122 697
2020-11-06 0013 356 GR 'Famis' Green Bay WI USA na EN54vk 655 407
2020-11-06 0009 355 CS 'Fenix' Columbus GA USA na EM72lk 890 553
2020-11-06 0007 353 VV 'Junne' Greensboro GA USA na EM83lp 912 567
2020-11-06 0004 353 GVB 'Bogalusa' George R Carr Memorial Airfield LA USA na EM50bv 894 555
2020-11-05 1151 350 LF 'Flufy' Lufkin TX USA na EM21of 924 574
2020-11-05 1150 349 GW 'Teock' Greenwood MS USA na EM43wo 25 592 368
2020-11-05 1150 350 CP 'Acore' Cahokia / St Louis IL USA na EM48xm 25 83 52
2020-11-05 1148 348 MC 'Surff' Mason City IA USA na EN33ib 25 506 314
2020-11-05 1141 346 VU 'Aller' Albemarle NC USA na EM95xl 1031 641
2020-11-05 1137 344 ZSB Noranda (Sudbury) ON CAN na EN96pq 100 1197 744
2020-11-05 1136 344 XX Abbotsford BC CAN na CN89sa 2741 1703
2020-11-05 1132 344 ES 'Pikle' Escanaba MI USA na EN65jr 25 817 508
2020-11-05 1130 344 IWJ 'Early County' Blakely GA USA na EM71ok 25 996 619
2020-11-05 1126 342 ST 'Hussk' St Cloud MN USA na EN35al 25 775 481
2020-11-05 1124 341 SB 'Misha' South Bend IN USA na EN61vq 503 312
2020-11-05 1116 340 GN 'Brindl' Lexington KY USA na EM78rc 558 347
2020-11-05 1112 338 YPX Puvirnituq QC CAN na FP10ib 500 2538 1577
2020-11-05 1111 338 TU 'Oillr' Tulsa OK USA na EM26bc 539 335
2020-11-05 1110 338 JZ 'Newbn' Lawrence KS USA na EM28kv 25 368 228
2020-11-05 1109 338 RYN 'Ryan' Tucson AZ USA na DM42kd 400 1975 1227
2020-11-05 1107 338 CYR 'Caidy' Cairo GA USA na EM70wv 25 1081 672
2020-11-05 1104 336 MA 'Wexford' Cadillac MI USA na EN74ff 740 460
2020-11-05 1103 336 LF La Salle MB CAN na EN19ip 50 1298 807
2020-11-05 1102 335 ZKF Kitchener (Wellington) ON CAN na EN93ul 15 1020 634
2020-11-05 1055 335 AWS 'Lawson' Columbus GA USA na EM72lh 902 560
2020-11-05 1052 332 XH Medicine Hat AB CAN na DO40oa 50 1996 1240
2020-11-05 1049 332 SG 'Depre' Green Bay WI USA na EN54wj 25 653 405
2020-11-05 1044 332 PH 'Phurn' Port Huron MI USA na EN82qu 821 510
2020-11-05 1036 329 OU Ste-Foy QC CAN na FN46is 1814 1127
2020-11-05 0817 328 BZJ 'Bellgrove' Indiantown Gap PA USA na FN10rk 1237 769
2020-11-05 0814 326 MA 'Farly' Midland TX USA na DM81ux 400 1287 800
2020-11-05 0814 326 PKZ 'Pickens' Pensacola FL USA na EM60jk 400 998 620
2020-11-05 0814 326 SU 'Snoop' Saint Louis MO USA na EM48op 25 29 18
2020-11-05 0810 326 BKT Blackstone VA USA na FM07xd 1140 708
2020-11-05 0759 315 AT 'Bruny' Dayton OH USA na EM79tu 569 353
2020-11-05 0755 311 9Y Pincher Creek AB CAN na DN39am 50 2173 1350
2020-11-05 0754 308 ZZD Calmar (Edmonton Intl Apt) AB CAN na DO33eg 2354 1463
2020-11-05 0753 305 RO 'Topan' Roswell NM USA na DM73si 400 1365 848
2020-11-05 0745 299 TR Bristol TN USA na EM86un 798 496
2020-11-05 0735 289 YLQ La Tuque QC CAN na FN37oj 500 1738 1080
2020-11-05 0734 287 ZWG 'Stoney' Medicine Rock (Winnipeg) MB CAN na EN19jx 17 1330 826
2020-11-05 0730 284 QD The Pas MB CAN na DO93lx 500 1845 1146
2020-11-05 0728 284 BT 'Rundi' Baton Rouge LA USA na EM40jn 927 576
2020-11-05 0724 281 CX 'Alibi' Conroe TX USA na EM20gk 25 1029 639
2020-11-05 0719 278 GPQ Carrollton GA USA na EM73kn 25 785 488
2020-11-05 0718 278 EOE 'Enoree' Newberry SC USA na EM94eh 25 969 602
2020-11-05 0717 278 CEP 'Capitan' Ruidoso NM USA na DM73hl 25 1431 889
2020-11-05 0716 278 AUR 'Sulfy' Sulphur LA USA na EM30ge 25 996 619
2020-11-05 0711 277 OT 'Wondd' Worthington MN USA na EN23go 25 648 403
2020-11-05 0709 276 YHR Chevery QC CAN na GO00el 500 2757 1713
2020-11-05 0708 276 ZTH 'Headframe' Thompson MB CAN na EO15ct 25 1949 1211
2020-11-05 0702 275 RU 'Rovdy' Salisbury NC USA na EM95sr 985 612
2020-11-05 0658 275 GEY Greybull WY USA na DN54xm 50 1552 964
2020-11-05 0657 275 GUY Guymon OK USA na DM96fq 25 968 602
2020-11-05 0654 275 HIN 'Whitney' Chadron NE USA na DN82kt 25 1117 694
2020-11-05 0654 275 R1 Thetford Mines QC CAN na FN46ib 25 1786 1110
2020-11-05 0651 356 ZF Yellowknife NT CAN na DP22sj 1000 3058 1900
2020-11-05 0650 274 FR Fort Resolution NT CAN na DP31ed 2926 1818
2020-11-05 0647 274 AKQ Wakefield VA USA na FM16lx 25 1230 764
2020-11-05 0644 273 FK 'Airbe' Fort Campbell (Hopkinsville) KY USA na EM66hr 25 390 243
2020-11-05 0137 272 RH 'Arsha' Rhinelander WI USA na EN55ep 757 471
2020-11-05 0125 267 HET Henryetta OK USA na EM15xj 25 601 373
2020-11-05 0124 266 YZX Greenwood NS CAN na FN74kw 400 2223 1381
2020-11-05 0116 257 MB 'Olste' Saginaw MI USA na EN73vl 755 469
2020-11-05 0110 245 LUA 'Caverns' Luray VA USA na FM08sq 25 1075 668
2020-11-05 0055 227 UZ 'Rally' Rock Hill SC USA na EM94lv 25 980 609
2020-11-05 0045 216 YFA Fort Albany ON CAN na EO92de 200 1638 1018
2020-11-05 0039 201 GL La Grande Riviere QC CAN na FO13dp 500 1920 1193
2020-11-03 1052 260 CL 'Rowdy' College Station TX USA na EM10tl 1062 660
2020-11-03 1043 255 BS 'Creed' Austin TX USA na EM10dc 1160 721
2020-11-03 1038 254 MB Manistee MI USA na EN64wg 716 445
2020-11-03 1036 254 LLW 'Woodville' Elizabeth City NC USA na FM16ug 50 1316 818
2020-11-03 1033 248 QL Lethbridge AB CAN na DN39no 2106 1308
2020-11-03 1029 245 PWF 'Sportys' Batavia OH USA na EM79vb 25 576 358
2020-11-03 1028 245 GTP 'Patten' Thomasville GA USA na EM80cw 1094 680
2020-11-03 1028 245 HU 'Yinno' Terre Haute IN USA na EM69hj 307 191
2020-11-03 1025 242 LE 'Blayd' Lexington KY USA na EM77qx 554 344
2020-11-03 1011 233 AG 'Bushe' Augusta GA USA na EM93ag 1015 631
2020-11-03 1009 230 BNZ Abbeville LA USA na EL39wx 25 998 620
2020-11-03 1003 223 YKA Kamloops BC CAN na CO90tq 500 2646 1644
2020-11-03 0956 221 BO 'Booie' Bristol (Johnston-Kingsport) TN USA na EM86sj 791 491
2020-11-03 0954 220 HUR Person NC USA na FM06lf 25 1083 673
2020-11-03 0945 205 GM 'Wilze' Wilmington NC USA na FM14ci 1270 789
2020-11-03 0937 201 BV 'Dewie' Bartlesville OK USA na EM16xu 25 507 315
2020-11-03 0244 524 HRD 'Hardin County' Kountze / Silsbee TX USA na EM20ui 25 999 621
2020-11-03 0243 523 JJH Johnstown NY USA na FN22ux 25 1462 908
2020-11-03 0242 521 GM 'Judky' Greenville SC USA na EM84ts 884 549
2020-11-03 0239 517 FN 'Hillz' Clinton IA USA na EN41ts 322 200
2020-11-03 0238 515 OS 'Fuler' Columbus OH USA na EN80jb 25 670 417
2020-11-03 0238 516 YWA Petawawa ON CAN na FN15iv 25 1357 843
2020-11-03 0237 423 SIF 'Slammer' Reidsville NC USA na FM06cj 25 1014 630
2020-11-03 0237 426 IZS Montezuma GA USA na EM72xi 25 953 592
2020-11-03 0236 423 PCW Port Clinton OH USA na EN81nm 25 739 459
2020-11-03 0235 420 PK Olathe KS USA na EM28ps 25 332 206
2020-11-03 0232 419 GB 'Babsy' Great Bend KS USA na EM08ng 25 699 434
2020-11-03 0226 414 ATS Artesia NM USA na DM72su 25 1394 866
2020-11-03 0220 413 MC 'Ferni' Mc Comb MS USA na EM41rg 25 848 527
2020-11-03 0217 407 ZHU Hauts-Bois / St Hubert (Montreal) QC CAN na FN35hn 95 1615 1004
2020-11-03 0213 403 ZTO Woodhill / Brampton (Toronto) ON CAN na FN03dr 40 1075 668
2020-11-03 0211 401 Y8 Drummondville QC CAN na FN35tu 126 1699 1056
2020-11-03 0207 400 OHY 'Coney' Cordele GA USA na EM81bx 25 996 619
2020-11-03 0206 400 ROB 'Robinson' Waco TX USA na EM11lm 992 617
2020-11-03 0202 397 ZHA Ancaster (Hamilton) ON CAN na EN93xe 14 1025 637
2020-11-03 0201 397 CIR Cairo IL USA na EM57jb 25 251 156
2020-11-03 0201 397 JE 'Algoa' Jefferson City MO USA na EM38xn 108 67
2020-11-03 0200 396 YPH Inukjuak QC CAN na FO08wk 500 2356 1464
2020-11-03 0144 395 YL Lynn Lake MB CAN na DO96lt 1600 2126 1321
2020-11-03 0143 395 ULS Ulysses KS USA na DM97ho 927 576
2020-11-03 0141 394 SP 'Snore' Spencer IA USA na EN23if 607 377
2020-11-03 0141 395 CA 'Harvs' Newton KS USA na EM18id 25 564 351
2020-11-03 0140 394 MKL 'Mersy' Jackson TN USA na EM55mm 25 412 256
2020-11-03 0138 393 BZ 'Fossi' Clinton OK USA na EM05jk 25 832 517
2020-11-03 0136 393 BR 'Depoo' Brownsville TX USA na EL15fx 1565 972
2020-11-03 0136 393 FGP Fort Bragg NC USA na FM05od 40 1150 714
2020-11-03 0134 392 AGZ Wagner SD USA na EN03ub 25 775 482
2020-11-03 0134 392 FMZ 'Beklof' Fairmont NE USA na EN10fo 25 600 373
2020-11-03 0130 390 OWC 'Coffee County' Douglas GA USA na EM81mj 25 1100 684
2020-11-03 0128 391 EFW Jefferson IA USA na EN22ta 25 456 284
2020-11-03 0128 391 GXD Nacogdoches TX USA na EM21pp 25 878 545
2020-11-03 0127 392 ML Charlevoix QC CAN na FN47uo 500 1919 1192
2020-11-03 0124 391 FIQ 'Fiddlers' Morganton NC USA na EM95dr 25 883 549
2020-11-03 0122 390 BR 'Burns' Burlington IL USA na EN40kp 25 196 122
2020-11-03 0120 391 OO Oshawa ON CAN na FN03nw 7 1145 712
2020-11-02 0839 388 RNW Chocowinity NC USA na FM15km 25 1273 791
2020-11-02 0838 388 MD 'Cabbi' Carbondale / Murphysboro IL USA na EM57ju 186 115
2020-11-02 0836 388 HAH 'Natchez-Adams Co' Natchez MS USA na EM41iq 802 498
2020-11-02 0835 388 OK 'Preso' Preston (Okmulgee) OK USA na EM25as 25 568 353
2020-11-02 0825 379 YPQ Peterborough ON CAN na FN04sf 25 1189 739
2020-11-02 0822 379 DL 'Pykla' Duluth MN USA na EN36tu 893 555
2020-11-02 0822 379 RUE Russellville AR USA na EM35kg 25 450 279
2020-11-02 0821 379 BRA 'Broad River' Asheville NC USA na EM85sg 100 848 527
2020-11-02 0819 376 LC 'Pickl' Columbus OH USA na EM89nv 25 696 432
2020-11-02 0818 376 BHC Baxley GA USA na EM81tr 1108 688
2020-11-02 0817 376 YAG Fort Frances ON CAN na EN38fq 40 1109 689
2020-11-02 0814 375 LF 'Laffs' Lafayette LA USA na EM40bg 963 598
2020-11-02 0812 375 SPH Springhill LA USA na EM32hw 25 699 435
2020-11-02 0811 375 LQ 'Licol' Springfield IL USA na EM59ev 155 96
2020-11-02 0808 374 HY 'Nette' Hays KS USA na EM08js 722 448
2020-11-02 0806 373 YXK Rimouski QC CAN na FN58rl 25 2076 1290
2020-11-02 0805 373 2Q Mont-Laurier QC CAN na FN26go 25 1518 943
2020-11-02 0803 371 GW Jarpik Kuujjuarapik QC CAN na FO15cg 500 2065 1283
2020-11-02 0803 372 UQN 'Onyun' Vidalia GA USA na EM82uf 25 1072 666
2020-11-02 0802 371 FQW 'Walter Hill' Murfreesboro TN USA na EM65tx 25 513 319
2020-11-02 0801 370 YBV Berens River MB CAN na EO12li 25 1570 975
2020-11-02 0757 370 HYW 'Horry' Conway SC USA na FM03kt 25 1193 741
2020-11-02 0752 368 VIQ Neillsville WI USA na EN44rn 25 631 392
2020-11-02 0750 368 ROQ Ruston LA USA na EM32qo 25 717 445
2020-11-02 0749 366 YMW Maniwaki QC CAN na FN26ae 500 1463 909
2020-11-02 0748 366 EZM Eastman GA USA na EM82kd 25 1026 638
2020-11-02 0743 365 SYZ Shelbyville IL USA na EM59nj 25 181 113
2020-11-02 0742 365 AA 'Kenie' Fargo MN USA na EN17oa 100 1023 635
2020-11-02 0742 365 FT 'Mufin' Fort Worth TX USA na EM12hv 25 887 551
2020-11-02 0741 363 RNB 'Rainbow' Millville NJ USA na FM29kk 50 1357 843
2020-11-02 0738 362 SB Sudbury ON CAN na EN96mp 400 1180 733
2020-11-02 0737 362 SUR Fitzgerald GA USA na EM81io 25 1063 660
2020-11-02 0734 362 MT Manitowac WI USA na EN64de 644 400
2020-11-02 0733 362 AK Akron OH USA na EN91hb 844 524
2020-11-02 0732 362 RPX Round Up MT USA na DN56rl 25 1666 1035
2020-11-02 0731 361 HB 'Himun' Burlington NC USA na FM05ex 1044 649
2020-11-02 0729 360 PN Port-Menier / Ile Anticosti QC CAN na FN79tu 500 2414 1500
2020-11-02 0728 360 GP 'Bayou' Gulfport MS USA na EM50kl 949 590
2020-11-02 0728 360 PI 'Capok' St Petersburg / Clearwater FL USA na EL87px 1429 888
2020-11-02 0727 360 SW 'Roadd' Warroad MN USA na EN28ju 25 1160 721
2020-11-02 0721 359 SDR Snyder TX USA na DM92mq 25 1140 709
2020-11-02 0720 359 GYG Grayling MI USA na EN74or 25 821 510
2020-11-02 0719 359 GGF Grant NE USA na DN90du 949 590
2020-11-02 0717 356 ODX Ord NE USA na EN01mo 25 749 465
2020-11-02 0402 388 JW 'Pigeon' Jumping Pound Creek AB CAN na DO21qb 15 2289 1422
2020-11-01 0620 271 HXO Huntsboro NC USA na FM06qh 25 1116 693
2020-11-01 0612 263 GR 'Knobs' Grand Rapids MI USA na EN72hv 641 398
2020-11-01 0610 263 3Z Russell MB CAN na DO90is 1551 964
2020-11-01 0557 410 WXYZ Unknown XUS xx
2020-11-01 0553 252 SMS Sumter SC USA na EM93tx 25 1086 674
2020-11-01 0551 251 BR 'Larew' Brainerd MN USA na EN26xk 25 877 545
2020-11-01 0543 248 PQF Mesquite TX USA na EM12rt 25 847 526
2020-11-01 0536 242 LKG 'Lindbergh' Americus GA USA na EM72we 25 963 598
2020-11-01 0527 236 BW 'Noora' Bowling Green KY USA na EM36fv 323 201
2020-11-01 0526 236 DO 'Dougy' Blue Lake (Minocqua) WI USA na EN55du 25 779 484
2020-11-01 0525 236 ZHT 'Forks' Winnipeg MB CAN na EN19ku 50 1314 817
2020-11-01 0518 230 AC Pleasant Lake (Yarmouth) NS CAN na FN63xu 2135 1326
2020-11-01 0507 219 AY 'Wiket' Waycross GA USA na EM81th 1143 710
2020-11-01 0502 204 ZQR 'Findlay' Regina SK CAN na DO70rk 20 1672 1039
2020-11-01 0501 204 GB 'Plazz' Buffalo NY USA na FN02ou 1106 687
2020-11-01 0455 210 IOB Mount Sterling KY USA na EM88ab 49 609 378
2020-11-01 0451 205 YRQ Trois Rivieres QC CAN na FN36qi 25 1702 1057
2020-11-01 0447 203 YBL Campbell River BC CAN na CO70ha 2970 1845
2020-11-01 0445 200 YJ Victoria BC CAN na CN88hp 100 2799 1739
2020-11-01 0438 232 GP Gaspe QC CAN na FN78ts 400 2375 1476
2020-11-01 0433 305 BNE Hewanorra LCA ca FK93mr 100 4053 2518
2020-11-01 0425 216 ME Matane QC CAN na FN68ft 100 2158 1341
2020-11-01 0423 215 YTR Trenton ON CAN na FN14he 25 1266 787
2020-11-01 0422 214 YIO Pond Inlet NU CAN na FQ12aq 25 3823 2375
2020-11-01 0412 234 TX 'Tecco' Texarkana AR USA na EM33am 25 658 409
2020-11-01 0349 380 GR 'Sancy' Grand Island NE USA na EN00uu 669 416
2020-11-01 0342 382 PCZ Waupaca WI USA na EN54lh 25 621 386
2020-11-01 0336 410 GG 'Veels' Longview TX USA na EM22ok 800 497
2020-11-01 0313 344 YGV Havre St Pierre QC CAN na FO80eg 25 2480 1541
2020-11-01 0244 335 BK 'CHRLZ' Brookings SD USA na EN14mi 25 789 490
2020-11-01 0238 332 IC 'Piche' Wichita KS USA na EM17gn 25 594 369
2020-11-01 0225 317 ZZR 'Trenton (Apt)' Severn ON CAN na FN14eb 50 1242 772
2020-11-01 0208 284 RT Rankin Inlet NU CAN na EP32wt 1000 2660 1653
2020-11-01 0153 263 YGK Kingston ON CAN na FN14qh 1000 1326 824
2020-11-01 0144 257 HCY Cowley WY USA na DN54sv 50 1596 992
2020-10-26 1144 383 PI 'Tyhee' Pocatello ID USA na DN32rx 400 1870 1162
2020-10-26 0055 385 PTP Pointe a Pitre GDL ca FK96eg 3794 2357
2020-10-25 1147 296 LGD La Grande OR USA na DN15ai 25 2333 1450
2020-10-25 1144 408 MW 'Pelly' Moses Lake WA USA na DN07ic 2467 1533
2020-10-25 1133 353 LLD Lanai HI HWA oc BL10ms 2000 6540 4063
2020-10-25 0709 365 PAL Palma EQA sa FI07cx 1000 4688 2913
2020-10-25 0702 329 YEK Arviat NU CAN na EP21xc 500 2479 1540
2020-10-25 0151 365 TOI 'Blood' Troy AL USA na EM61wt 897 557
2020-10-25 0119 323 TAB Crown Point TRD ca FK91nd 4279 2659
2020-10-25 0104 284 RQY 'Randolph Co' Elkins WV USA na FM08bv 50 951 591
2020-10-25 0050 237 EZF 'Shannon' Fredericksburg VA USA na FM18gg 25 1167 725
2020-10-25 0035 209 SYS 'Stoystown' Somerset PA USA na FN00nc 25 1037 645
2020-10-25 0030 254 5B Summerside PE CAN na FN86bj 250 2346 1458
2020-10-25 0028 520 F9 Chatham (Miramichi) NB CAN na FN77ga 123 2244 1394
2020-10-24 1109 345 GF 'Hiser' Grand Forks ND USA na EN17ju 1119 695
2020-10-24 1103 278 EOE 'Enoree' Newberry SC USA na EM94eh 25 969 602
2020-10-24 1037 404 MOG Montague CA USA na CN81sr 25 2681 1666
2020-10-24 1033 338 RYN 'Ryan' Tucson AZ USA na DM42kd 400 1975 1227
2020-10-24 0405 400 FN 'Colln' Fort Collins / Loveland CO USA na DN70mi 25 1216 755
2020-10-24 0352 380 GC 'Deryk' Gillette WY USA na DN74fg 25 1356 842
2020-10-24 0351 379 BRA 'Broad River' Asheville NC USA na EM85sg 100 848 527
2020-10-24 0345 369 ZDX Coolidge Saint Johns ATG ca FK97cd 700 3711 2306
2020-10-24 0340 363 RNB 'Rainbow' Millville NJ USA na FM29kk 50 1357 843
2020-10-24 0335 362 RPX Round Up MT USA na DN56rl 25 1666 1035
2020-10-24 0325 349 GW 'Teock' Greenwood MS USA na EM43wo 25 592 368
2020-10-24 0303 309 GPI Guapi CLM sa FJ12bn 500 4249 2640
2020-10-24 0257 280 QX Gander NL CAN na GN28px 1000 3070 1907
2020-10-24 0252 267 HET Henryetta OK USA na EM15xj 25 601 373
2020-10-24 0230 414 ATS Artesia NM USA na DM72su 25 1394 866
2020-10-24 0227 266 XD Edmonton AB CAN na DO33fp 2373 1474
2020-10-24 0222 206 QI Yarmouth NS CAN na FN63wt 500 2128 1322
2020-10-24 0221 341 OIN Oberlin KS USA na DM99rt 25 837 520
2020-10-24 0206 407 BZ 'Bullo' Statesboro GA USA na EM92ek 25 1100 684
2020-10-24 0203 402 L4 Nipawin SK CAN na DO73xi 200 1894 1177
2020-10-24 0153 391 GXD Nacogdoches TX USA na EM21pp 25 878 545
2020-10-24 0148 382 IRS Sturgis MI USA na EN71gt 25 562 349
2020-10-24 0140 368 VIQ Neillsville WI USA na EN44rn 25 631 392
2020-10-24 0123 352 VM 'Meana', Mena Intermountain Municipal AR USA na EM24xm 25 562 349
2020-10-24 0121 350 NY Enderby BC CAN na DO00mp 500 2550 1584
2020-10-24 0116 344 JA 'Dinns' Jacksonville FL USA na EM90cl 400 1250 776
2020-10-24 0115 341 CQN 'Daisy' Chattanooga TN USA na EM75kd 50 659 409
2020-10-24 0111 340 GN 'Brindl' Lexington KY USA na EM78rc 558 347
2020-10-24 0110 338 UMP 'Metropolitan' Indianapolis IN USA na EM69xw 25 431 268
2020-10-24 0108 329 PMV Plattsmouth NE USA na EN20bw 25 483 300
2020-10-24 0101 391 DDP San Juan / Dorado / Luiz Munoz Marin Intl PR PTR ca FK68tl 2000 3275 2035
2020-10-24 0059 329 BQP Bastrop LA USA na EM42bs 25 687 427
2020-10-24 0056 326 YQK Kenora ON CAN na EN29st 200 1246 774
2020-10-24 0051 274 RG Red Wing MN USA na EN34qo 25 651 404
2020-10-24 0050 269 BEX Bloomfield IA USA na EN30sr 25 245 152
2020-10-24 0046 245 PWF 'Sportys' Batavia OH USA na EM79vb 25 576 358
2020-10-24 0045 245 FS 'Rokky' Sioux Falls SD USA na EN13ol 100 710 441
2020-10-24 0033 248 WG Winnipeg MB CAN na EN19hv 250 1326 824
2020-10-24 0032 278 NM Matagami QC CAN na FN19dr 400 1591 989
2020-10-23 1916 263 CVM 'Civic Memorial' Alton IL USA na EM48xv 72 45
2020-10-23 1914 227 FZ 'Eaves' St. Louis MO USA na EM48rq 37 23
2020-10-22 0932 269 LOR 'Lowe' Fort Rucker (Ozark) AL USA na EM71di 961 597
2020-10-22 0926 266 PYX Perryton TX USA na DM96pj 25 909 565
2020-10-22 0922 263 QY Sydney NS CAN na GN06af 500 2640 1641
2020-10-22 0918 261 OA 'Ellas' Jacksonville NC USA na FM14ds 1257 781
2020-10-22 0915 260 GHJ 'Stonia' Gastonia NC USA na EM95ke 958 595
2020-10-22 0906 257 LW Kelowna BC CAN na DO00hb 50 2557 1589
2020-10-22 0905 257 JYR York NE USA na EN10ev 25 617 383
2020-10-22 0902 255 SW 'Blaki' Stillwater OK USA na EM16kf 50 625 389
2020-10-22 0859 254 LLW 'Woodville' Elizabeth City NC USA na FM16ug 50 1316 818
2020-10-22 0847 245 UDG Darlington SC USA na FM04bk 25 1098 682
2020-10-22 0847 253 OC 'Nados' Nacogdoches TX USA na EM21pl 25 895 556
2020-10-22 0846 245 HU 'Yinno' Terre Haute IN USA na EM69hj 307 191
2020-10-22 0844 245 CB Cambridge Bay NU CAN na DP79lc 1000 3464 2152
2020-10-22 0833 235 9H La Grande 3 QC CAN na FO13vn 250 1974 1227
2020-10-22 0817 221 HM Hamilton (Carluke) ON CAN na EN93xc 25 1021 635
2020-10-22 0809 209 ITR 'Kit Carson' Burlington CO USA na DM89uf 25 986 612
2020-10-21 1107 400 OHY 'Coney' Cordele GA USA na EM81bx 25 996 619
2020-10-21 1104 393 BZ 'Fossi' Clinton OK USA na EM05jk 25 832 517
2020-10-21 1102 393 BR 'Depoo' Brownsville TX USA na EL15fx 1565 972
2020-10-21 1058 391 FIQ 'Fiddlers' Morganton NC USA na EM95dr 25 883 549
2020-10-21 1050 388 RNW Chocowinity NC USA na FM15km 25 1273 791
2020-10-21 1043 388 MD 'Cabbi' Carbondale / Murphysboro IL USA na EM57ju 186 115
2020-10-21 1035 381 MNI Manning SC USA na EM93vo 25 1122 697
2020-10-21 1019 426 IZS Montezuma GA USA na EM72xi 25 953 592
2020-10-21 0956 404 HU 'Saltt' Hutchinson KS USA na EM18ac 25 622 387
2020-10-20 1151 290 YYF Penticton BC CAN na DN09el 500 2555 1587
2020-10-19 1133 396 CRS Corsicana TX USA na EM12ta 25 912 567
2020-10-19 1131 394 SP 'Snore' Spencer IA USA na EN23if 607 377
2020-10-19 1127 392 AGZ Wagner SD USA na EN03ub 25 775 482
2020-10-19 1125 391 4W Kelsey MB CAN na EO16ra 25 1949 1211
2020-10-19 1125 392 FMZ 'Beklof' Fairmont NE USA na EN10fo 25 600 373
2020-10-19 1122 385 DXB De Ridder LA USA na EM30hs 931 579
2020-10-19 1114 375 LF 'Laffs' Lafayette LA USA na EM40bg 963 598
2020-10-19 1111 374 HY 'Nette' Hays KS USA na EM08js 722 448